Stations météo

réclame
Mon MeteoGroup
Plasencia, Espagne (8252): Température de l'air & dewpoint: 16.10.2017 14:00:00 - 22.10.2017 14:00:00 (CEST)Plasencia, Espagne (8252): Vitesse du vent & gusts: 16.10.2017 14:00:00 - 22.10.2017 14:00:00 (CEST)Plasencia, Espagne (8252): Direction du vent: 16.10.2017 14:00:00 - 22.10.2017 14:00:00 (CEST)Plasencia, Espagne (8252): Quantités de précipitations: 16.10.2017 14:00:00 - 22.10.2017 14:00:00 (CEST)
Date & Time tt [°C] td [°C] ff [km/h] ff [knt] fx [km/h] fx [knt] dd rr [mm]
22.10.2017 14:00:00 - - - - - - - -
22.10.2017 13:00:00 19,4 8,4 5 3 15 8 ESE 0,0
22.10.2017 12:00:00 15,5 8,0 2 1 10 6 SE 0,0
22.10.2017 11:00:00 11,9 5,9 0 0 5 3 WSW 0,0
22.10.2017 10:00:00 10,1 5,6 0 0 7 4 E 0,0
22.10.2017 09:00:00 10,2 5,0 4 2 9 5 E 0,0
22.10.2017 08:00:00 10,5 4,1 0 0 7 4 N -
22.10.2017 07:00:00 11,8 4,3 3 2 10 5 ENE 0,0
22.10.2017 06:00:00 11,9 4,1 2 1 9 5 E 0,0
22.10.2017 05:00:00 12,2 3,9 1 1 6 3 ENE 0,0
22.10.2017 04:00:00 13,2 4,3 1 1 16 9 ESE 0,0
22.10.2017 03:00:00 13,7 4,5 6 3 20 11 NNE 0,0
22.10.2017 02:00:00 14,5 4,8 7 4 40 21 NE -
22.10.2017 01:00:00 15,3 5,5 15 8 36 19 N 0,0
22.10.2017 00:00:00 15,4 5,6 12 7 44 24 N 0,0
21.10.2017 23:00:00 15,5 5,9 13 7 34 19 N 0,0
21.10.2017 22:00:00 15,7 5,9 13 7 33 18 NNW 0,0
21.10.2017 21:00:00 16,4 5,6 8 4 25 13 NNE 0,0
21.10.2017 20:00:00 17,9 5,8 5 3 23 12 N -
21.10.2017 19:00:00 19,8 6,5 8 4 20 11 NNW 0,0
21.10.2017 18:00:00 20,6 10,6 3 2 16 9 NNW 0,0
21.10.2017 17:00:00 21,0 11,6 3 2 21 12 NW 0,0
21.10.2017 16:00:00 21,9 13,6 4 2 17 9 WNW 0,0
21.10.2017 15:00:00 21,8 13,7 5 3 19 11 N 0,0
21.10.2017 14:00:00 19,8 13,5 7 4 19 10 NNW -
21.10.2017 13:00:00 18,4 13,9 5 3 20 11 N 0,0
21.10.2017 12:00:00 17,9 16,6 5 3 17 9 WNW 0,0
21.10.2017 11:00:00 17,7 17,4 5 3 13 7 WNW 0,0
21.10.2017 10:00:00 17,0 16,6 4 2 13 7 W 0,0
21.10.2017 09:00:00 17,0 16,6 5 3 13 7 WNW 0,0
21.10.2017 08:00:00 17,1 16,8 4 2 13 7 W -
21.10.2017 07:00:00 17,3 17,0 4 2 16 8 W 0,0
21.10.2017 06:00:00 17,2 16,9 5 3 13 7 W 0,0
21.10.2017 05:00:00 17,7 17,4 5 3 11 6 W 0,0
21.10.2017 04:00:00 17,8 17,5 4 2 15 8 W 0,0
21.10.2017 03:00:00 18,1 17,8 4 2 15 8 W 0,0
21.10.2017 02:00:00 18,3 18,0 7 4 16 8 W -
21.10.2017 01:00:00 18,6 18,3 6 3 16 8 WSW 0,0
21.10.2017 00:00:00 18,7 18,4 6 3 13 7 WSW 0,7
20.10.2017 23:00:00 18,3 18,0 1 1 7 4 E 0,2
20.10.2017 22:00:00 18,6 18,1 3 2 7 4 E 0,5
20.10.2017 21:00:00 19,3 17,9 0 0 6 3 N 0,4
20.10.2017 20:00:00 19,4 17,7 1 1 19 10 WNW -
20.10.2017 19:00:00 21,1 15,9 4 2 10 5 W 0,0
20.10.2017 18:00:00 22,0 16,0 3 1 10 5 WNW 0,0
20.10.2017 17:00:00 22,5 16,0 4 2 13 7 W 0,0
20.10.2017 16:00:00 21,5 16,2 4 2 14 8 NW 0,0
20.10.2017 15:00:00 20,3 15,7 4 2 15 8 WNW 0,0
20.10.2017 14:00:00 19,3 15,0 6 3 14 8 W -
20.10.2017 13:00:00 19,2 15,4 3 2 13 7 WNW 0,0
20.10.2017 12:00:00 17,9 15,2 3 1 10 5 W 0,0
20.10.2017 11:00:00 16,3 14,5 1 1 7 4 E 0,0
20.10.2017 10:00:00 15,6 15,2 0 0 4 2 NE 0,0
20.10.2017 09:00:00 15,0 14,5 0 0 7 4 SE 0,0
20.10.2017 08:00:00 15,4 14,9 4 2 11 6 W -
20.10.2017 07:00:00 15,5 15,0 3 2 7 4 W 0,0
20.10.2017 06:00:00 15,4 14,6 0 0 8 5 WSW 0,0
20.10.2017 05:00:00 15,6 13,9 0 0 5 3 N 0,0
20.10.2017 04:00:00 15,5 14,0 0 0 7 4 NNE 0,0
20.10.2017 03:00:00 14,6 13,0 2 1 8 4 WNW 0,0
20.10.2017 02:00:00 14,7 12,2 0 0 8 4 WSW -
20.10.2017 01:00:00 15,6 13,0 3 2 12 6 WNW 0,0
20.10.2017 00:00:00 15,6 12,3 3 1 14 8 WNW 0,0
19.10.2017 23:00:00 15,5 11,3 4 2 15 8 NW 0,0
19.10.2017 22:00:00 15,7 10,3 5 3 13 7 WNW 0,0
19.10.2017 21:00:00 16,3 9,7 5 3 14 7 W 0,0
19.10.2017 20:00:00 16,9 9,3 4 2 18 10 W -
19.10.2017 19:00:00 17,7 9,0 5 3 22 12 W 0,0
19.10.2017 18:00:00 17,8 8,9 7 4 18 10 W 0,0
19.10.2017 17:00:00 18,2 8,5 5 3 21 11 W 0,0
19.10.2017 16:00:00 18,0 8,5 5 3 16 9 WNW 0,0
19.10.2017 15:00:00 17,7 9,6 6 4 18 10 W 0,0
19.10.2017 14:00:00 16,3 11,2 6 4 16 8 WNW -
19.10.2017 13:00:00 14,0 11,1 5 3 14 8 W 0,0
19.10.2017 12:00:00 12,9 10,4 5 3 12 6 W 0,0
19.10.2017 11:00:00 11,1 10,2 2 1 8 5 WSW 0,0
19.10.2017 10:00:00 9,2 8,9 0 0 1 1 N 0,0
19.10.2017 09:00:00 8,8 8,5 0 0 6 4 W 0,0
19.10.2017 08:00:00 8,5 7,7 0 0 0 0 N -
19.10.2017 07:00:00 8,4 7,8 0 0 0 0 N 0,0
19.10.2017 06:00:00 8,9 8,0 0 0 4 2 N 0,0
19.10.2017 05:00:00 9,6 8,0 2 1 10 5 WSW 0,0
19.10.2017 04:00:00 10,0 8,4 1 1 10 5 E 0,0
19.10.2017 03:00:00 10,2 8,8 4 2 8 5 E 0,0
19.10.2017 02:00:00 10,5 8,8 2 1 13 7 NE -
19.10.2017 01:00:00 11,2 9,4 3 2 8 4 ESE 0,0
19.10.2017 00:00:00 11,8 9,3 3 2 9 5 ESE 0,0
18.10.2017 23:00:00 12,1 9,4 0 0 14 7 NE 0,0
18.10.2017 22:00:00 12,1 9,7 5 3 13 7 E 0,0
18.10.2017 21:00:00 12,7 10,0 5 3 16 8 E 0,0
18.10.2017 20:00:00 13,4 10,2 6 3 18 10 ENE -
18.10.2017 19:00:00 14,9 10,6 5 3 13 7 ENE 0,0
18.10.2017 18:00:00 15,5 10,5 4 2 26 14 N 0,5
18.10.2017 17:00:00 16,0 8,9 3 2 30 16 WNW 0,0
18.10.2017 16:00:00 17,5 9,4 10 6 29 16 W 0,0
18.10.2017 15:00:00 17,8 10,4 14 7 29 16 W 0,0
18.10.2017 14:00:00 16,6 11,9 9 5 23 12 WSW -
18.10.2017 13:00:00 15,7 14,2 4 2 14 8 W 0,1
18.10.2017 12:00:00 13,4 12,7 5 3 17 9 W 0,0
18.10.2017 11:00:00 13,2 12,7 6 4 16 9 W 0,2
18.10.2017 10:00:00 12,5 12,3 1 0 10 5 SW 0,0
18.10.2017 09:00:00 12,3 12,1 3 2 11 6 E 0,4
18.10.2017 08:00:00 12,3 12,1 3 1 7 4 ENE -
18.10.2017 07:00:00 12,3 12,0 3 2 7 4 ENE 1,5
18.10.2017 06:00:00 12,3 11,7 0 0 11 6 S 0,7
18.10.2017 05:00:00 12,6 12,3 4 2 11 6 E 1,2
18.10.2017 04:00:00 13,1 11,8 1 1 11 6 SSE 1,3
18.10.2017 03:00:00 15,3 14,7 2 1 9 5 SW 1,3
18.10.2017 02:00:00 15,4 13,9 0 0 10 6 SE -
18.10.2017 01:00:00 15,3 14,3 4 2 9 5 ENE 0,0
18.10.2017 00:00:00 15,3 15,0 4 2 13 7 E 0,0
17.10.2017 23:00:00 15,7 15,3 5 3 9 5 E 0,0
17.10.2017 22:00:00 16,0 15,3 2 1 9 5 E 0,0
17.10.2017 21:00:00 16,2 14,0 3 2 8 5 E 0,0
17.10.2017 20:00:00 17,6 13,4 1 1 10 5 S -
17.10.2017 19:00:00 19,0 14,7 2 1 19 10 SW 0,0
17.10.2017 18:00:00 19,9 15,5 4 2 21 11 ESE 0,0
17.10.2017 17:00:00 20,4 16,0 5 3 16 9 ESE 0,0
17.10.2017 16:00:00 19,5 16,6 4 2 16 9 SE 0,0
17.10.2017 15:00:00 17,4 15,7 4 2 20 11 ESE 0,0
17.10.2017 14:00:00 16,4 15,1 4 2 23 13 SE -
17.10.2017 13:00:00 16,0 15,3 5 3 28 15 ESE 0,0
17.10.2017 12:00:00 16,3 14,8 4 2 22 12 SE 0,4
17.10.2017 11:00:00 17,8 14,5 5 3 20 11 SSE 0,0
17.10.2017 10:00:00 16,9 14,5 3 2 13 7 SE 0,0
17.10.2017 09:00:00 16,3 13,6 1 1 20 11 E 1,1
17.10.2017 08:00:00 19,7 11,2 3 1 11 6 SE -
17.10.2017 07:00:00 20,0 11,4 2 1 7 4 E 0,0
17.10.2017 06:00:00 20,2 11,1 0 0 12 7 N 0,0
17.10.2017 05:00:00 20,7 11,9 3 1 11 6 S 0,0
17.10.2017 04:00:00 20,2 11,7 3 2 9 5 W 0,0
17.10.2017 03:00:00 20,7 12,1 0 0 7 4 W 0,0
17.10.2017 02:00:00 21,2 12,1 0 0 13 7 E -
17.10.2017 01:00:00 21,2 11,8 5 3 10 5 E 0,0
17.10.2017 00:00:00 21,7 12,2 2 1 6 4 E 0,0
16.10.2017 23:00:00 22,2 11,9 3 2 13 7 W 0,0
16.10.2017 22:00:00 22,4 12,1 5 3 16 9 W 0,0
16.10.2017 21:00:00 23,0 12,0 8 4 17 9 W 0,0
16.10.2017 20:00:00 25,3 11,4 0 0 8 5 SSE -
16.10.2017 19:00:00 26,5 12,5 2 1 15 8 ESE 0,0
16.10.2017 18:00:00 27,2 13,2 3 2 20 11 ESE 0,0
16.10.2017 17:00:00 27,9 13,8 4 2 - - SE -
16.10.2017 16:00:00 - - 3 2 25 14 SE 0,0
16.10.2017 15:00:00 27,9 15,5 6 4 24 13 SE 0,0
16.10.2017 14:00:00 26,0 15,3 7 4 29 15 ESE -

tt = Température de l'air
td = dewpoint
ff = Vitesse du vent
fx = gusts
dd = Direction du vent
rr = Quantités de précipitations

stations d'obs. à proximité